createdAt,value
2018-05-13T00:00:35.494Z,20.70
2018-05-13T00:03:04.044Z,20.70
2018-05-13T00:05:33.004Z,20.70
2018-05-13T00:08:01.229Z,20.70
2018-05-13T00:10:29.446Z,20.70
2018-05-13T00:12:57.755Z,20.70
2018-05-13T00:15:26.743Z,20.60
2018-05-13T00:17:55.740Z,20.50
2018-05-13T00:20:24.710Z,20.60
2018-05-13T00:22:52.921Z,20.60
2018-05-13T00:25:21.132Z,20.50
2018-05-13T00:27:49.352Z,20.40
2018-05-13T00:30:18.346Z,20.40
2018-05-13T00:32:47.323Z,20.60
2018-05-13T00:35:16.589Z,20.80
2018-05-13T00:37:44.789Z,20.80
2018-05-13T00:40:13.355Z,20.70
2018-05-13T00:42:41.576Z,20.30
2018-05-13T00:45:09.820Z,20.30
2018-05-13T00:47:38.024Z,20.10
2018-05-13T00:50:06.602Z,20.00
2018-05-13T00:52:35.581Z,19.90
2018-05-13T00:55:03.795Z,19.90
2018-05-13T00:57:32.016Z,20.00
2018-05-13T01:00:00.253Z,19.90
2018-05-13T01:02:28.497Z,20.20
2018-05-13T01:04:56.735Z,20.20
2018-05-13T01:07:24.960Z,20.20
2018-05-13T01:09:53.193Z,20.20
2018-05-13T01:12:21.424Z,20.30
2018-05-13T01:14:49.672Z,20.20
2018-05-13T01:17:17.905Z,20.10
2018-05-13T01:19:46.136Z,20.00
2018-05-13T01:22:14.351Z,20.00
2018-05-13T01:24:42.573Z,20.00
2018-05-13T01:27:10.797Z,20.00
2018-05-13T01:29:39.027Z,20.10
2018-05-13T01:32:07.242Z,20.20
2018-05-13T01:34:35.472Z,20.20
2018-05-13T01:37:03.751Z,20.20
2018-05-13T01:39:32.256Z,20.20
2018-05-13T01:42:00.458Z,20.10
2018-05-13T01:44:28.689Z,20.20
2018-05-13T01:46:56.915Z,20.10
2018-05-13T01:49:25.157Z,20.10
2018-05-13T01:51:53.382Z,20.20
2018-05-13T01:54:22.415Z,20.20
2018-05-13T01:56:50.635Z,20.20
2018-05-13T01:59:18.854Z,20.20
2018-05-13T02:01:47.069Z,20.20
2018-05-13T02:04:15.388Z,20.20
2018-05-13T02:06:43.600Z,20.20
2018-05-13T02:09:11.852Z,19.90
2018-05-13T02:11:40.102Z,19.50
2018-05-13T02:14:09.083Z,18.50
2018-05-13T02:16:37.383Z,18.50
2018-05-13T02:19:05.591Z,18.50
2018-05-13T02:21:33.840Z,18.50
2018-05-13T02:24:02.054Z,18.60
2018-05-13T02:26:30.289Z,18.30
2018-05-13T02:28:58.491Z,18.30
2018-05-13T02:31:26.742Z,18.40
2018-05-13T02:33:54.968Z,18.50
2018-05-13T02:36:23.281Z,18.60
2018-05-13T02:38:51.499Z,18.50
2018-05-13T02:41:19.743Z,18.30
2018-05-13T02:43:47.960Z,18.50
2018-05-13T02:46:16.398Z,18.40
2018-05-13T02:48:44.615Z,18.40
2018-05-13T02:51:12.845Z,18.40
2018-05-13T02:53:41.247Z,18.30
2018-05-13T02:56:09.513Z,18.60
2018-05-13T02:58:37.728Z,18.70
2018-05-13T03:01:05.967Z,18.80
2018-05-13T03:03:34.432Z,18.90
2018-05-13T03:06:02.656Z,18.90
2018-05-13T03:08:30.899Z,19.10
2018-05-13T03:10:59.152Z,19.30
2018-05-13T03:13:27.381Z,19.30
2018-05-13T03:15:55.698Z,19.30
2018-05-13T03:18:23.912Z,19.30
2018-05-13T03:20:52.830Z,19.20
2018-05-13T03:23:21.118Z,19.20
2018-05-13T03:25:49.410Z,19.30
2018-05-13T03:28:17.620Z,19.30
2018-05-13T03:30:45.861Z,19.30
2018-05-13T03:33:14.089Z,19.40
2018-05-13T03:35:42.304Z,19.30
2018-05-13T03:38:10.555Z,19.20
2018-05-13T03:40:38.876Z,19.20
2018-05-13T03:43:08.020Z,19.20
2018-05-13T03:45:37.047Z,19.40
2018-05-13T03:48:05.257Z,19.40
2018-05-13T03:50:33.511Z,19.50
2018-05-13T03:53:01.730Z,19.50
2018-05-13T03:55:29.964Z,19.40
2018-05-13T03:57:58.225Z,19.30
2018-05-13T04:00:26.445Z,19.20
2018-05-13T04:02:54.789Z,19.20
2018-05-13T04:05:23.008Z,18.90
2018-05-13T04:11:30.878Z,18.90
2018-05-13T04:14:11.008Z,18.90
2018-05-13T04:16:40.008Z,18.90
2018-05-13T04:19:09.077Z,19.10
2018-05-13T04:21:37.279Z,19.00
2018-05-13T04:24:06.280Z,19.30
2018-05-13T04:26:35.338Z,19.30
2018-05-13T04:29:03.484Z,19.30
2018-05-13T04:31:31.704Z,19.30
2018-05-13T04:34:00.704Z,19.30
2018-05-13T04:36:28.952Z,19.30
2018-05-13T04:38:57.156Z,19.30
2018-05-13T04:41:26.162Z,19.20
2018-05-13T04:43:54.368Z,19.20
2018-05-13T04:46:22.606Z,19.20
2018-05-13T04:48:51.588Z,19.30
2018-05-13T04:51:20.590Z,19.20
2018-05-13T04:53:48.791Z,19.20
2018-05-13T04:56:17.053Z,19.30
2018-05-13T04:58:45.256Z,19.40
2018-05-13T05:01:13.534Z,19.50
2018-05-13T05:03:41.758Z,19.30
2018-05-13T05:06:10.731Z,19.40
2018-05-13T05:08:39.728Z,19.60
2018-05-13T05:11:08.695Z,19.50
2018-05-13T05:13:36.914Z,19.50
2018-05-13T05:16:05.739Z,19.60
2018-05-13T05:18:33.984Z,19.50
2018-05-13T05:21:02.215Z,19.80
2018-05-13T05:23:30.729Z,19.70
2018-05-13T05:25:59.754Z,19.60
2018-05-13T05:28:28.010Z,19.60
2018-05-13T05:30:56.208Z,19.20
2018-05-13T05:33:24.433Z,18.90
2018-05-13T05:35:53.412Z,19.20
2018-05-13T05:38:21.723Z,19.20
2018-05-13T05:40:49.992Z,19.00
2018-05-13T05:43:18.976Z,18.90
2018-05-13T05:45:47.144Z,18.90
2018-05-13T05:48:16.149Z,19.20
2018-05-13T05:50:44.364Z,19.20
2018-05-13T05:53:12.588Z,19.10
2018-05-13T05:55:41.565Z,19.10
2018-05-13T05:58:09.856Z,19.10
2018-05-13T06:00:38.866Z,19.00
2018-05-13T06:03:07.367Z,19.00
2018-05-13T06:05:35.553Z,19.30
2018-05-13T06:08:03.789Z,19.20
2018-05-13T06:10:32.002Z,19.10
2018-05-13T06:13:00.234Z,19.20
2018-05-13T06:15:28.468Z,19.10
2018-05-13T06:17:56.857Z,19.40
2018-05-13T06:20:25.063Z,19.90
2018-05-13T06:22:53.294Z,20.00
2018-05-13T06:25:21.788Z,19.80
2018-05-13T06:27:50.084Z,20.10
2018-05-13T06:30:19.072Z,20.00
2018-05-13T06:32:48.090Z,19.90
2018-05-13T06:35:16.320Z,19.80
2018-05-13T06:37:44.537Z,19.70
2018-05-13T06:40:12.952Z,19.80
2018-05-13T06:42:41.151Z,19.40
2018-05-13T06:45:09.495Z,19.50
2018-05-13T06:47:37.666Z,19.70
2018-05-13T06:50:06.203Z,19.70
2018-05-13T06:52:34.483Z,19.60
2018-05-13T06:55:03.546Z,19.60
2018-05-13T06:57:31.764Z,19.60
2018-05-13T06:59:59.992Z,19.70
2018-05-13T07:02:28.215Z,19.80
2018-05-13T07:04:56.460Z,19.60
2018-05-13T07:07:25.437Z,19.70
2018-05-13T07:09:53.660Z,19.70
2018-05-13T07:12:21.887Z,19.70
2018-05-13T07:14:50.098Z,19.60
2018-05-13T07:17:18.328Z,19.60
2018-05-13T07:19:46.536Z,19.60
2018-05-13T07:22:15.511Z,19.70
2018-05-13T07:24:43.747Z,19.70
2018-05-13T07:27:11.944Z,19.90
2018-05-13T07:29:40.202Z,19.50
2018-05-13T07:32:08.389Z,19.50
2018-05-13T07:34:36.716Z,19.50
2018-05-13T07:37:04.920Z,19.50
2018-05-13T07:39:33.153Z,19.40
2018-05-13T07:42:03.118Z,19.80
2018-05-13T07:44:31.449Z,19.80
2018-05-13T07:46:59.692Z,19.70
2018-05-13T07:49:27.908Z,19.60
2018-05-13T07:51:56.259Z,19.40
2018-05-13T07:54:24.654Z,19.30
2018-05-13T07:56:52.856Z,19.30
2018-05-13T07:59:21.071Z,19.40
2018-05-13T08:01:49.379Z,19.30
2018-05-13T08:04:17.592Z,19.50
2018-05-13T08:06:45.814Z,19.40
2018-05-13T08:09:14.784Z,19.60
2018-05-13T08:11:43.009Z,19.50
2018-05-13T08:14:11.305Z,19.50
2018-05-13T08:16:39.447Z,19.60
2018-05-13T08:19:07.689Z,19.50
2018-05-13T08:21:35.998Z,19.40
2018-05-13T08:24:04.252Z,19.40
2018-05-13T08:26:32.444Z,19.50
2018-05-13T08:29:00.664Z,19.40
2018-05-13T08:31:28.894Z,19.30
2018-05-13T08:33:57.113Z,19.20
2018-05-13T08:36:25.328Z,19.00
2018-05-13T08:38:54.304Z,19.20
2018-05-13T08:41:22.531Z,19.20
2018-05-13T08:43:50.738Z,19.40
2018-05-13T08:46:19.064Z,19.50
2018-05-13T08:48:49.724Z,19.90
2018-05-13T08:51:17.984Z,19.90
2018-05-13T08:53:46.211Z,20.00
2018-05-13T08:56:14.420Z,19.90
2018-05-13T08:58:42.630Z,19.90
2018-05-13T09:01:10.852Z,20.10
2018-05-13T09:03:39.833Z,20.00
2018-05-13T09:06:08.835Z,19.90
2018-05-13T09:08:37.087Z,19.90
2018-05-13T09:11:05.289Z,20.00
2018-05-13T09:13:33.497Z,20.00
2018-05-13T09:16:01.851Z,20.00
2018-05-13T09:18:30.028Z,20.50
2018-05-13T09:20:58.329Z,20.30
2018-05-13T09:23:26.466Z,20.40
2018-05-13T09:25:55.458Z,20.30
2018-05-13T09:28:30.340Z,20.60
2018-05-13T09:30:58.664Z,20.50
2018-05-13T09:33:27.640Z,21.00
2018-05-13T09:35:55.924Z,20.90
2018-05-13T09:38:24.912Z,21.30
2018-05-13T09:40:53.130Z,21.20
2018-05-13T09:43:21.380Z,21.40
2018-05-13T09:45:49.618Z,21.30
2018-05-13T09:48:17.824Z,21.50
2018-05-13T09:50:46.812Z,21.80
2018-05-13T09:53:15.792Z,21.60
2018-05-13T09:55:44.795Z,21.60
2018-05-13T09:58:13.756Z,21.40
2018-05-13T10:00:41.981Z,21.40
2018-05-13T10:03:10.419Z,21.80
2018-05-13T10:05:38.656Z,22.10
2018-05-13T10:08:06.904Z,22.20
2018-05-13T10:10:35.880Z,22.50
2018-05-13T10:13:04.860Z,22.60
2018-05-13T10:15:33.064Z,22.50
2018-05-13T10:18:01.499Z,22.50
2018-05-13T10:20:29.708Z,22.40
2018-05-13T10:22:58.696Z,22.40
2018-05-13T10:25:27.698Z,22.50
2018-05-13T10:27:56.695Z,22.70
2018-05-13T10:30:24.913Z,22.70
2018-05-13T10:32:53.139Z,22.80
2018-05-13T10:35:21.474Z,22.80
2018-05-13T10:37:49.670Z,22.60
2018-05-13T10:40:18.666Z,22.20
2018-05-13T10:42:47.658Z,22.00
2018-05-13T10:45:16.632Z,22.00
2018-05-13T10:47:44.864Z,22.00
2018-05-13T10:50:13.282Z,22.00
2018-05-13T10:52:41.620Z,22.20
2018-05-13T10:55:09.821Z,22.20
2018-05-13T10:57:38.093Z,22.20
2018-05-13T11:00:06.622Z,21.70
2018-05-13T11:02:34.905Z,21.90
2018-05-13T11:05:03.105Z,22.00
2018-05-13T11:07:31.436Z,22.20
2018-05-13T11:09:59.636Z,22.20
2018-05-13T11:12:27.865Z,21.70
2018-05-13T11:14:56.075Z,21.80
2018-05-13T11:17:25.069Z,21.40
2018-05-13T11:19:54.045Z,21.40
2018-05-13T11:22:23.041Z,21.00
2018-05-13T11:24:52.018Z,21.00
2018-05-13T11:27:20.420Z,21.00
2018-05-13T11:29:49.403Z,20.90
2018-05-13T11:32:18.419Z,20.90
2018-05-13T11:34:46.640Z,20.90
2018-05-13T11:37:14.920Z,20.80
2018-05-13T11:39:44.688Z,20.60
2018-05-13T11:42:12.894Z,20.60
2018-05-13T11:44:41.115Z,20.70
2018-05-13T11:47:10.108Z,20.60
2018-05-13T11:49:38.328Z,20.60
2018-05-13T11:52:06.546Z,20.90
2018-05-13T11:54:35.580Z,20.90
2018-05-13T11:57:03.800Z,21.00
2018-05-13T11:59:32.004Z,20.80
2018-05-13T12:02:00.285Z,20.90
2018-05-13T12:04:28.501Z,21.00
2018-05-13T12:06:56.708Z,21.10
2018-05-13T12:09:25.725Z,21.30
2018-05-13T12:11:54.705Z,21.50
2018-05-13T12:14:22.912Z,21.40
2018-05-13T12:16:51.116Z,21.60
2018-05-13T12:19:19.337Z,21.40
2018-05-13T12:21:47.597Z,21.10
2018-05-13T12:24:15.881Z,20.80
2018-05-13T12:26:44.840Z,21.10
2018-05-13T12:29:13.058Z,21.10
2018-05-13T12:31:41.265Z,21.10
2018-05-13T12:34:09.505Z,21.30
2018-05-13T12:36:37.703Z,21.40
2018-05-13T12:39:05.928Z,21.30
2018-05-13T12:41:34.921Z,21.20
2018-05-13T12:44:03.136Z,21.20
2018-05-13T12:46:31.345Z,21.30
2018-05-13T12:48:59.585Z,21.20
2018-05-13T12:51:27.791Z,21.20
2018-05-13T12:53:56.016Z,21.00
2018-05-13T12:56:24.294Z,21.00
2018-05-13T12:58:52.668Z,21.00
2018-05-13T13:01:21.009Z,20.90
2018-05-13T13:03:49.345Z,20.90
2018-05-13T13:06:17.453Z,20.90
2018-05-13T13:08:45.768Z,20.90
2018-05-13T13:11:14.736Z,21.00
2018-05-13T13:13:43.742Z,21.10
2018-05-13T13:16:12.730Z,20.90
2018-05-13T13:18:41.741Z,21.00
2018-05-13T13:21:09.952Z,20.90
2018-05-13T13:23:38.347Z,21.00
2018-05-13T13:26:06.559Z,20.90
2018-05-13T13:28:35.562Z,20.90
2018-05-13T13:31:03.804Z,20.90
2018-05-13T13:33:32.027Z,21.00
2018-05-13T13:36:00.271Z,21.10
2018-05-13T13:38:28.491Z,21.00
2018-05-13T13:40:56.723Z,21.30
2018-05-13T13:43:24.942Z,21.30
2018-05-13T13:45:53.981Z,21.40
2018-05-13T13:48:22.986Z,21.60
2018-05-13T13:50:51.217Z,21.60
2018-05-13T13:53:19.405Z,21.50
2018-05-13T13:55:48.856Z,21.40
2018-05-13T13:58:17.074Z,21.40
2018-05-13T14:00:45.305Z,21.40
2018-05-13T14:03:13.517Z,21.40
2018-05-13T14:05:41.751Z,21.20
2018-05-13T14:08:10.022Z,21.10
2018-05-13T14:10:38.268Z,21.00
2018-05-13T14:13:07.284Z,21.00
2018-05-13T14:15:35.523Z,21.00
2018-05-13T14:18:03.834Z,21.20
2018-05-13T14:20:32.209Z,21.10
2018-05-13T14:23:00.366Z,20.90
2018-05-13T14:25:28.568Z,20.80
2018-05-13T14:27:56.886Z,20.70
2018-05-13T14:30:25.111Z,20.80
2018-05-13T14:32:54.155Z,20.70
2018-05-13T14:35:23.085Z,20.60
2018-05-13T14:37:51.288Z,20.60
2018-05-13T14:40:19.528Z,20.50
2018-05-13T14:42:48.508Z,20.70
2018-05-13T14:45:17.582Z,20.50
2018-05-13T14:47:46.511Z,20.50
2018-05-13T14:50:14.755Z,20.50
2018-05-13T14:52:42.970Z,20.60
2018-05-13T14:55:11.201Z,20.50
2018-05-13T14:57:40.946Z,20.70
2018-05-13T15:00:09.691Z,20.70
2018-05-13T15:02:37.943Z,20.80
2018-05-13T15:05:06.239Z,20.80
2018-05-13T15:07:34.421Z,20.70
2018-05-13T15:10:03.020Z,20.90
2018-05-13T15:12:31.236Z,20.80
2018-05-13T15:14:59.855Z,20.70
2018-05-13T15:17:28.543Z,20.80
2018-05-13T15:19:57.123Z,20.80
2018-05-13T15:22:32.504Z,20.80
2018-05-13T15:25:00.986Z,20.60
2018-05-13T15:27:30.175Z,20.60
2018-05-13T15:29:59.149Z,20.80
2018-05-13T15:32:27.373Z,20.80
2018-05-13T15:34:55.577Z,21.00
2018-05-13T15:37:23.789Z,21.00
2018-05-13T15:39:52.782Z,20.80
2018-05-13T15:42:21.773Z,20.90
2018-05-13T15:44:50.741Z,21.00
2018-05-13T15:47:18.975Z,20.90
2018-05-13T15:49:47.185Z,21.00
2018-05-13T15:52:15.396Z,21.10
2018-05-13T15:54:44.392Z,21.00
2018-05-13T15:57:13.366Z,21.00
2018-05-13T15:59:42.339Z,21.10
2018-05-13T16:02:11.424Z,21.10
2018-05-13T16:04:39.623Z,21.20
2018-05-13T16:07:08.616Z,21.10
2018-05-13T16:09:37.608Z,21.00
2018-05-13T16:12:05.887Z,21.00
2018-05-13T16:14:34.038Z,20.90
2018-05-13T16:17:02.356Z,20.90
2018-05-13T16:19:30.625Z,20.80
2018-05-13T16:21:58.900Z,20.70
2018-05-13T16:24:27.218Z,20.60
2018-05-13T16:26:55.442Z,20.50
2018-05-13T16:29:24.412Z,20.90
2018-05-13T16:31:52.864Z,20.90
2018-05-13T16:34:21.093Z,20.90
2018-05-13T16:36:50.084Z,20.40
2018-05-13T16:39:19.060Z,20.30
2018-05-13T16:41:47.285Z,20.30
2018-05-13T16:44:15.488Z,20.30
2018-05-13T16:46:43.716Z,20.20
2018-05-13T16:49:11.990Z,20.40
2018-05-13T16:51:40.215Z,20.30
2018-05-13T16:54:08.498Z,20.20
2018-05-13T16:56:36.773Z,20.10
2018-05-13T16:59:05.071Z,20.10
2018-05-13T17:01:33.292Z,20.00
2018-05-13T17:04:01.551Z,20.10
2018-05-13T17:06:29.773Z,20.00
2018-05-13T17:08:58.013Z,19.90
2018-05-13T17:11:26.216Z,19.70
2018-05-13T17:13:54.441Z,19.60
2018-05-13T17:16:22.664Z,19.50
2018-05-13T17:18:50.872Z,19.50
2018-05-13T17:21:20.842Z,19.60
2018-05-13T17:23:49.194Z,19.60
2018-05-13T17:26:17.414Z,19.40
2018-05-13T17:28:45.645Z,19.60
2018-05-13T17:31:13.865Z,19.40
2018-05-13T17:33:42.097Z,19.40
2018-05-13T17:36:10.423Z,19.30
2018-05-13T17:38:38.645Z,19.30
2018-05-13T17:41:06.925Z,19.40
2018-05-13T17:43:35.122Z,19.30
2018-05-13T17:46:03.347Z,19.50
2018-05-13T17:48:31.584Z,19.50
2018-05-13T17:51:00.013Z,19.20
2018-05-13T17:53:28.242Z,18.80
2018-05-13T17:55:56.480Z,19.00
2018-05-13T17:58:24.713Z,19.10
2018-05-13T18:00:53.730Z,19.00
2018-05-13T18:03:22.903Z,19.10
2018-05-13T18:05:50.978Z,19.10
2018-05-13T18:08:19.200Z,19.00
2018-05-13T18:10:47.453Z,18.90
2018-05-13T18:13:15.686Z,19.00
2018-05-13T18:15:43.963Z,18.80
2018-05-13T18:18:12.206Z,18.80
2018-05-13T18:20:40.485Z,18.90
2018-05-13T18:23:09.110Z,18.90
2018-05-13T18:25:37.361Z,18.80
2018-05-13T18:28:05.597Z,18.60
2018-05-13T18:30:33.875Z,18.60
2018-05-13T18:33:02.138Z,18.50
2018-05-13T18:35:30.556Z,18.50
2018-05-13T18:37:58.782Z,18.60
2018-05-13T18:40:27.023Z,18.50
2018-05-13T18:42:56.012Z,18.40
2018-05-13T18:45:24.288Z,18.40
2018-05-13T18:47:52.513Z,18.50
2018-05-13T18:50:20.777Z,18.30
2018-05-13T18:52:49.792Z,18.10
2018-05-13T18:55:18.022Z,18.10
2018-05-13T18:57:47.011Z,18.30
2018-05-13T19:00:16.145Z,18.20
2018-05-13T19:02:44.387Z,18.20
2018-05-13T19:05:13.381Z,18.20
2018-05-13T19:07:41.593Z,18.20
2018-05-13T19:10:10.102Z,18.20
2018-05-13T19:12:38.318Z,18.20
2018-05-13T19:15:06.613Z,18.20
2018-05-13T19:17:34.880Z,18.20
2018-05-13T19:20:03.823Z,18.20
2018-05-13T19:22:32.056Z,18.20
2018-05-13T19:25:00.277Z,18.30
2018-05-13T19:27:29.271Z,18.20
2018-05-13T19:29:57.504Z,18.10
2018-05-13T19:32:25.875Z,18.10
2018-05-13T19:34:54.115Z,18.20
2018-05-13T19:37:23.141Z,18.20
2018-05-13T19:39:51.408Z,18.20
2018-05-13T19:42:19.651Z,18.20
2018-05-13T19:44:47.910Z,18.20
2018-05-13T19:47:16.229Z,18.10
2018-05-13T19:49:44.496Z,18.10
2018-05-13T19:52:13.534Z,18.00
2018-05-13T19:54:41.774Z,18.00
2018-05-13T19:57:10.026Z,18.00
2018-05-13T19:59:39.054Z,18.10
2018-05-13T20:02:07.292Z,18.10
2018-05-13T20:04:35.540Z,18.00
2018-05-13T20:07:03.752Z,18.20
2018-05-13T20:09:32.050Z,18.10
2018-05-13T20:12:00.228Z,18.00
2018-05-13T20:14:28.436Z,18.10
2018-05-13T20:16:56.678Z,17.90
2018-05-13T20:19:24.930Z,17.90
2018-05-13T20:21:53.920Z,17.80
2018-05-13T20:24:22.145Z,17.70
2018-05-13T20:26:50.489Z,17.80
2018-05-13T20:29:18.722Z,17.90
2018-05-13T20:31:46.941Z,17.80
2018-05-13T20:34:15.202Z,17.80
2018-05-13T20:36:43.470Z,17.80
2018-05-13T20:39:12.461Z,17.80
2018-05-13T20:41:40.744Z,17.80
2018-05-13T20:44:09.010Z,17.80
2018-05-13T20:46:38.009Z,17.90
2018-05-13T20:49:06.242Z,17.90
2018-05-13T20:51:34.460Z,17.90
2018-05-13T20:54:02.746Z,17.90
2018-05-13T20:56:31.011Z,17.90
2018-05-13T20:58:59.235Z,17.80
2018-05-13T21:01:27.479Z,17.70
2018-05-13T21:03:55.728Z,17.60
2018-05-13T21:06:24.726Z,17.80
2018-05-13T21:08:52.972Z,17.80
2018-05-13T21:11:21.218Z,17.90
2018-05-13T21:13:49.425Z,17.90
2018-05-13T21:16:18.447Z,17.80
2018-05-13T21:18:46.668Z,17.80
2018-05-13T21:21:15.018Z,17.80
2018-05-13T21:23:43.232Z,17.80
2018-05-13T21:26:11.459Z,17.80
2018-05-13T21:28:39.810Z,17.80
2018-05-13T21:31:08.033Z,17.80
2018-05-13T21:33:36.233Z,17.90
2018-05-13T21:36:04.463Z,18.10
2018-05-13T21:38:32.681Z,18.00
2018-05-13T21:41:00.944Z,18.00
2018-05-13T21:43:29.172Z,18.00
2018-05-13T21:45:57.415Z,18.00
2018-05-13T21:48:26.399Z,18.00
2018-05-13T21:50:54.641Z,18.00
2018-05-13T21:53:23.054Z,18.00
2018-05-13T21:55:51.318Z,18.00
2018-05-13T21:58:19.537Z,18.00
2018-05-13T22:00:48.535Z,18.00
2018-05-13T22:03:16.752Z,17.90
2018-05-13T22:05:44.986Z,18.00
2018-05-13T22:08:13.263Z,17.90
2018-05-13T22:10:41.507Z,17.80
2018-05-13T22:13:10.542Z,17.80
2018-05-13T22:15:38.767Z,17.80
2018-05-13T22:18:07.097Z,17.70
2018-05-13T22:20:35.300Z,17.60
2018-05-13T22:23:03.923Z,17.70
2018-05-13T22:25:32.892Z,17.70
2018-05-13T22:28:01.887Z,17.60
2018-05-13T22:30:30.103Z,17.60
2018-05-13T22:32:58.328Z,17.60
2018-05-13T22:35:26.563Z,17.70
2018-05-13T22:37:54.786Z,17.70
2018-05-13T22:40:23.006Z,17.60
2018-05-13T22:42:51.232Z,17.70
2018-05-13T22:45:19.465Z,17.70
2018-05-13T22:47:47.693Z,17.70
2018-05-13T22:50:16.687Z,17.60
2018-05-13T22:52:46.538Z,17.70
2018-05-13T22:55:14.906Z,17.70
2018-05-13T22:57:43.276Z,17.70
2018-05-13T23:00:11.704Z,17.60
2018-05-13T23:02:40.001Z,17.60
2018-05-13T23:05:08.191Z,17.60
2018-05-13T23:07:37.189Z,17.50
2018-05-13T23:10:05.631Z,17.60
2018-05-13T23:12:33.959Z,17.50
2018-05-13T23:15:02.217Z,17.50
2018-05-13T23:17:31.216Z,17.50
2018-05-13T23:20:00.189Z,17.50
2018-05-13T23:22:35.241Z,17.50
2018-05-13T23:25:04.256Z,17.50
2018-05-13T23:27:32.512Z,17.50
2018-05-13T23:30:00.687Z,17.50
2018-05-13T23:32:28.960Z,17.50
2018-05-13T23:34:58.116Z,17.50
2018-05-13T23:37:26.435Z,17.50
2018-05-13T23:39:54.713Z,17.50
2018-05-13T23:42:22.942Z,17.50
2018-05-13T23:44:51.140Z,17.50
2018-05-13T23:47:20.152Z,17.50
2018-05-13T23:49:48.360Z,17.40
2018-05-13T23:52:16.580Z,17.50
2018-05-13T23:54:45.567Z,17.50
2018-05-13T23:57:13.888Z,17.40
2018-05-13T23:59:42.113Z,17.50
